Terminal Aerodrome Forecast
Issued by NWS Buffalo, NY

Home | Current Version | Previous Version | Text Only | Print | Product List | Glossary On
Versions: 1 2 3 4 5 6 7 8 9 10 11 12 13 14 15 16 17 18 19 20 21 22
000
FTUS41 KBUF 240537
TAFART
TAF
KART 240537Z 2406/2506 22010KT P6SM SCT130 WS020/26040KT
      TEMPO 2407/2411 BKN130
     FM241100 22010KT P6SM SCT100
     FM241600 23014G22KT P6SM FEW250
     FM242300 22008KT P6SM SCT250
     FM250400 20004KT P6SM BKN080=

USA.gov is the U.S. government's official web portal to all federal, state and local government web resources and services.